createdAt,value
2023-01-21T08:51:12.935Z,4.68
2023-01-21T08:53:43.025Z,4.63
2023-01-21T08:56:29.225Z,4.69
2023-01-21T08:58:59.550Z,5.04
2023-01-21T09:01:29.718Z,4.83
2023-01-21T09:03:58.630Z,4.57
2023-01-21T09:06:30.102Z,4.38
2023-01-21T09:09:12.018Z,4.14
2023-01-21T09:11:50.794Z,4.37
2023-01-21T09:14:20.122Z,4.61
2023-01-21T09:16:53.384Z,4.20
2023-01-21T09:25:13.730Z,4.45
2023-01-21T09:27:48.280Z,3.56
2023-01-21T09:30:21.912Z,4.23
2023-01-21T09:32:51.645Z,4.42
2023-01-21T09:35:27.137Z,3.66
2023-01-21T09:38:19.420Z,4.42
2023-01-21T09:41:16.369Z,4.08
2023-01-21T09:44:19.839Z,3.20
2023-01-21T09:47:02.735Z,4.46
2023-01-21T09:49:39.973Z,4.49
2023-01-21T09:52:32.611Z,4.57
2023-01-21T09:55:08.276Z,3.70
2023-01-21T09:57:54.304Z,3.88
2023-01-21T10:00:42.490Z,3.49
2023-01-21T10:03:30.699Z,3.78
2023-01-21T10:06:16.596Z,4.42
2023-01-21T10:09:05.323Z,3.98
2023-01-21T10:11:46.994Z,4.46
2023-01-21T10:14:42.052Z,3.90
2023-01-21T10:17:17.226Z,4.47
2023-01-21T10:19:49.783Z,4.54
2023-01-21T10:22:22.545Z,3.70
2023-01-21T10:24:57.568Z,4.02
2023-01-21T10:27:29.185Z,4.26
2023-01-21T10:30:07.423Z,4.17
2023-01-21T10:32:39.104Z,3.59
2023-01-21T10:35:19.116Z,4.21
2023-01-21T10:37:53.968Z,3.77
2023-01-21T10:40:42.964Z,3.88
2023-01-21T10:43:22.027Z,3.76
2023-01-21T10:46:25.724Z,3.85
2023-01-21T10:49:10.307Z,2.90
2023-01-21T10:51:47.863Z,3.41
2023-01-21T10:54:28.430Z,3.47
2023-01-21T10:57:22.494Z,3.87
2023-01-21T10:59:53.068Z,2.90
2023-01-21T11:02:39.543Z,3.93
2023-01-21T11:05:27.264Z,3.20
2023-01-21T11:08:05.613Z,4.03
2023-01-21T11:10:37.235Z,3.93
2023-01-21T11:13:10.056Z,3.07
2023-01-21T11:15:42.387Z,3.92
2023-01-21T11:27:37.918Z,2.98
2023-01-21T11:32:51.885Z,3.44
2023-01-21T11:35:26.294Z,3.68
2023-01-21T11:37:55.296Z,3.37
2023-01-21T11:40:30.423Z,4.05
2023-01-21T11:43:00.147Z,4.15
2023-01-21T11:45:32.053Z,4.15
2023-01-21T11:48:03.369Z,4.13
2023-01-21T11:50:38.472Z,4.13
2023-01-21T11:53:24.125Z,3.94
2023-01-21T11:55:55.140Z,3.85
2023-01-21T11:58:28.711Z,3.17
2023-01-21T12:01:04.789Z,4.20
2023-01-21T12:03:42.018Z,3.92
2023-01-21T12:06:31.189Z,3.53
2023-01-21T12:12:33.826Z,3.65
2023-01-21T12:15:40.161Z,3.68
2023-01-21T12:18:17.575Z,3.97
2023-01-21T12:20:56.867Z,3.50
2023-01-21T12:23:49.748Z,3.32
2023-01-21T12:26:36.514Z,3.50
2023-01-21T12:29:19.523Z,3.89
2023-01-21T12:31:52.616Z,4.00
2023-01-21T12:34:27.961Z,4.25
2023-01-21T12:37:04.463Z,3.72
2023-01-21T12:39:41.070Z,3.46
2023-01-21T12:42:16.514Z,4.06
2023-01-21T12:47:58.557Z,4.01
2023-01-21T12:50:36.558Z,3.58
2023-01-21T12:53:20.978Z,3.30
2023-01-21T12:56:17.874Z,3.80
2023-01-21T12:58:55.354Z,2.88
2023-01-21T13:01:44.092Z,3.95
2023-01-21T13:04:26.248Z,3.04
2023-01-21T13:07:09.339Z,3.73
2023-01-21T13:09:47.199Z,3.67
2023-01-21T13:12:34.548Z,3.91
2023-01-21T13:15:11.989Z,3.93
2023-01-21T13:17:45.450Z,3.02
2023-01-21T13:23:18.629Z,2.79
2023-01-21T13:26:07.910Z,3.02
2023-01-21T13:28:44.403Z,3.35
2023-01-21T13:31:20.793Z,3.80
2023-01-21T13:33:59.029Z,3.91
2023-01-21T13:36:47.807Z,2.96
2023-01-21T13:39:26.024Z,3.29
2023-01-21T13:42:06.431Z,3.77
2023-01-21T13:45:13.662Z,3.72
2023-01-21T13:48:15.935Z,3.67
2023-01-21T13:51:13.051Z,3.86
2023-01-21T13:54:27.872Z,3.72
2023-01-21T14:03:57.394Z,3.66
2023-01-21T14:15:36.419Z,3.13
2023-01-21T14:18:53.590Z,3.67
2023-01-21T14:25:10.432Z,4.07
2023-01-21T14:31:12.733Z,3.58
2023-01-21T14:34:06.509Z,3.69
2023-01-21T14:37:49.145Z,2.56
2023-01-21T14:44:12.279Z,2.82
2023-01-21T14:50:39.364Z,3.02
2023-01-21T14:53:41.688Z,2.32
2023-01-21T15:08:33.078Z,3.64
2023-01-21T15:13:00.889Z,2.31
2023-01-21T15:14:51.471Z,3.70
2023-01-21T15:29:52.481Z,3.17
2023-01-21T15:32:36.573Z,3.63
2023-01-21T15:42:09.075Z,2.66
2023-01-21T15:48:58.213Z,3.76
2023-01-21T15:51:41.432Z,3.93
2023-01-21T15:54:21.788Z,4.03
2023-01-21T15:56:59.683Z,3.89
2023-01-21T15:59:47.053Z,3.99
2023-01-21T16:02:50.601Z,3.97
2023-01-21T16:05:33.142Z,3.98
2023-01-21T16:08:13.410Z,3.83
2023-01-21T16:10:55.769Z,4.12
2023-01-21T16:13:35.926Z,4.29
2023-01-21T16:16:14.892Z,4.15
2023-01-21T16:18:54.153Z,4.01
2023-01-21T16:21:29.060Z,4.10
2023-01-21T16:24:00.122Z,4.14
2023-01-21T16:26:32.779Z,3.94
2023-01-21T16:29:02.163Z,4.15
2023-01-21T16:31:30.707Z,4.13
2023-01-21T16:33:58.944Z,3.85
2023-01-21T16:36:29.851Z,4.06
2023-01-21T16:38:58.691Z,4.06
2023-01-21T16:41:28.661Z,3.99
2023-01-21T16:44:01.483Z,4.15
2023-01-21T16:46:37.780Z,4.19
2023-01-21T16:49:13.613Z,4.03
2023-01-21T16:51:54.590Z,3.89
2023-01-21T16:54:26.635Z,4.17
2023-01-21T16:56:57.783Z,3.91
2023-01-21T16:59:29.212Z,3.73
2023-01-21T17:01:59.974Z,3.82
2023-01-21T17:04:30.458Z,3.90
2023-01-21T17:07:00.905Z,4.04
2023-01-21T17:09:33.274Z,3.79
2023-01-21T17:12:07.670Z,3.84
2023-01-21T17:14:36.947Z,3.92
2023-01-21T17:17:08.956Z,4.11
2023-01-21T17:19:40.497Z,3.98
2023-01-21T17:22:15.790Z,3.89
2023-01-21T17:24:56.675Z,3.86
2023-01-21T17:27:26.730Z,3.85
2023-01-21T17:29:55.071Z,4.06
2023-01-21T17:32:28.449Z,4.17
2023-01-21T17:35:12.804Z,4.11
2023-01-21T17:37:52.897Z,4.35
2023-01-21T17:40:30.089Z,4.01
2023-01-21T17:43:00.694Z,3.96
2023-01-21T17:45:32.509Z,3.79
2023-01-21T17:48:10.262Z,3.84
2023-01-21T17:50:47.055Z,3.59
2023-01-21T17:53:22.980Z,3.70
2023-01-21T17:56:03.072Z,3.72
2023-01-21T17:58:48.650Z,3.82
2023-01-21T18:01:21.406Z,3.74
2023-01-21T18:03:50.284Z,3.71
2023-01-21T18:06:21.973Z,3.66
2023-01-21T18:08:54.342Z,3.89
2023-01-21T18:11:23.652Z,3.88
2023-01-21T18:13:52.730Z,3.89
2023-01-21T18:16:21.378Z,3.65
2023-01-21T18:18:50.888Z,4.09
2023-01-21T18:21:21.256Z,3.89
2023-01-21T18:23:50.214Z,3.59
2023-01-21T18:26:28.613Z,3.60
2023-01-21T18:28:57.197Z,3.62
2023-01-21T18:31:25.792Z,3.52
2023-01-21T18:33:54.059Z,3.54
2023-01-21T18:36:22.349Z,3.44
2023-01-21T18:38:51.099Z,3.39
2023-01-21T18:41:20.682Z,3.58
2023-01-21T18:43:49.270Z,3.52
2023-01-21T18:46:19.949Z,3.48
2023-01-21T18:48:50.009Z,3.53
2023-01-21T18:51:19.106Z,3.33
2023-01-21T18:53:47.525Z,3.29
2023-01-21T18:56:17.710Z,3.53
2023-01-21T18:58:48.413Z,3.68
2023-01-21T19:01:23.451Z,3.71
2023-01-21T19:03:56.199Z,3.80
2023-01-21T19:06:26.820Z,3.66
2023-01-21T19:08:56.276Z,3.85
2023-01-21T19:11:24.645Z,3.89
2023-01-21T19:13:54.460Z,3.69
2023-01-21T19:16:23.450Z,3.51
2023-01-21T19:18:52.024Z,3.59
2023-01-21T19:21:23.527Z,3.64
2023-01-21T19:23:51.879Z,3.56
2023-01-21T19:26:21.069Z,3.58
2023-01-21T19:28:49.762Z,3.71
2023-01-21T19:31:21.232Z,3.28
2023-01-21T19:33:52.608Z,3.46
2023-01-21T19:36:22.627Z,3.43
2023-01-21T19:38:55.821Z,3.19
2023-01-21T19:41:24.144Z,2.88
2023-01-21T19:43:52.416Z,3.36
2023-01-21T19:46:24.106Z,3.27
2023-01-21T19:48:53.874Z,3.22
2023-01-21T19:51:22.566Z,3.21
2023-01-21T19:53:50.853Z,3.25
2023-01-21T19:56:23.937Z,3.18
2023-01-21T19:58:52.386Z,3.20
2023-01-21T20:01:22.131Z,3.20
2023-01-21T20:03:59.610Z,3.42
2023-01-21T20:06:31.767Z,3.55
2023-01-21T20:09:01.955Z,3.49
2023-01-21T20:11:33.538Z,3.62
2023-01-21T20:14:07.790Z,3.66
2023-01-21T20:16:46.568Z,3.79
2023-01-21T20:19:17.699Z,3.66
2023-01-21T20:22:00.394Z,3.53
2023-01-21T20:24:34.393Z,3.72
2023-01-21T20:27:28.072Z,3.60
2023-01-21T20:30:14.760Z,3.27
2023-01-21T20:32:45.602Z,3.55
2023-01-21T20:35:16.199Z,3.46
2023-01-21T20:37:49.291Z,3.51
2023-01-21T20:40:21.058Z,3.15
2023-01-21T20:42:59.595Z,3.44
2023-01-21T20:45:32.034Z,3.47
2023-01-21T20:48:04.916Z,3.29
2023-01-21T20:50:35.557Z,3.54
2023-01-21T20:53:05.933Z,3.63
2023-01-21T20:55:34.053Z,3.29
2023-01-21T20:58:02.558Z,3.22
2023-01-21T21:00:35.244Z,3.31
2023-01-21T21:03:05.472Z,3.33
2023-01-21T21:05:34.581Z,3.26
2023-01-21T21:08:03.743Z,3.22
2023-01-21T21:10:37.596Z,3.55
2023-01-21T21:13:06.415Z,3.54
2023-01-21T21:15:36.749Z,3.54
2023-01-21T21:18:08.505Z,3.24
2023-01-21T21:20:39.466Z,3.35
2023-01-21T21:23:08.737Z,3.36
2023-01-21T21:25:42.506Z,3.44
2023-01-21T21:28:11.292Z,3.38
2023-01-21T21:30:41.556Z,3.19
2023-01-21T21:33:23.407Z,3.02
2023-01-21T21:35:52.200Z,3.31
2023-01-21T21:38:26.656Z,3.18
2023-01-21T21:40:55.221Z,2.92
2023-01-21T21:43:36.037Z,3.00
2023-01-21T21:46:27.669Z,3.12
2023-01-21T21:48:57.569Z,2.89
2023-01-21T21:51:26.334Z,2.91
2023-01-21T21:53:54.721Z,2.94
2023-01-21T21:56:24.908Z,2.88
2023-01-21T21:58:53.713Z,2.92
2023-01-21T22:01:24.278Z,2.92
2023-01-21T22:03:53.140Z,3.01
2023-01-21T22:06:23.814Z,3.08
2023-01-21T22:08:55.060Z,2.96
2023-01-21T22:11:24.520Z,3.14
2023-01-21T22:13:53.904Z,3.10
2023-01-21T22:16:24.260Z,2.98
2023-01-21T22:18:53.079Z,2.99
2023-01-21T22:21:24.457Z,3.08
2023-01-21T22:23:53.377Z,3.02
2023-01-21T22:26:24.571Z,3.17
2023-01-21T22:28:53.162Z,2.94
2023-01-21T22:31:23.658Z,3.14
2023-01-21T22:33:52.741Z,3.29
2023-01-21T22:36:24.488Z,3.09
2023-01-21T22:38:53.326Z,2.96
2023-01-21T22:41:22.947Z,2.96
2023-01-21T22:43:52.167Z,2.54
2023-01-21T22:46:23.521Z,2.76
2023-01-21T22:48:52.040Z,2.74
2023-01-21T22:51:21.509Z,2.77
2023-01-21T22:53:51.339Z,2.55
2023-01-21T22:56:25.390Z,2.67
2023-01-21T22:59:00.236Z,2.74
2023-01-21T23:01:31.514Z,2.77
2023-01-21T23:04:01.675Z,2.73
2023-01-21T23:06:30.407Z,2.88
2023-01-21T23:09:00.148Z,2.74
2023-01-21T23:11:31.084Z,2.70
2023-01-21T23:13:59.510Z,2.88
2023-01-21T23:16:27.638Z,2.93
2023-01-21T23:18:55.976Z,2.88
2023-01-21T23:21:24.213Z,2.74
2023-01-21T23:23:52.344Z,2.69
2023-01-21T23:26:23.881Z,2.68
2023-01-21T23:28:56.180Z,2.63
2023-01-21T23:31:25.831Z,2.51
2023-01-21T23:33:56.370Z,2.46
2023-01-21T23:36:25.037Z,2.38
2023-01-21T23:38:53.491Z,2.56
2023-01-21T23:41:23.456Z,2.75
2023-01-21T23:43:51.828Z,2.76
2023-01-21T23:46:20.899Z,2.61
2023-01-21T23:48:49.768Z,2.91
2023-01-21T23:51:19.089Z,2.73
2023-01-21T23:53:48.591Z,2.61
2023-01-21T23:56:18.814Z,2.90
2023-01-21T23:58:48.727Z,2.50
